Time;durP1;ratioP1;P1;durP2;ratioP2;P2;SDS_P1;SDS_P2;PMS_P1;PMS_P2;Temp;Humidity;BMP_temperature;BMP_pressure;BME280_temperature;BME280_humidity;BME280_pressure;Samples;Min_cycle;Max_cycle;Signal;HPM_P1;HPM_P2
2023/01/13 00:01:17;;;;;;;44.85;28.67;;;4.00;82.80;;;;;;5075532;28;20439;-12
2023/01/13 00:03:43;;;;;;;58.00;35.92;;;4.10;82.60;;;;;;5075382;28;20029;-12
2023/01/13 00:06:14;;;;;;;60.65;35.65;;;4.10;82.70;;;;;;5075185;28;20647;-12
2023/01/13 00:08:40;;;;;;;67.72;41.58;;;4.10;82.80;;;;;;5075226;28;20413;-12
2023/01/13 00:11:06;;;;;;;66.03;39.05;;;4.20;82.80;;;;;;5074938;28;20040;-12
2023/01/13 00:13:34;;;;;;;66.63;41.78;;;4.10;82.70;;;;;;5073756;28;20418;-13
2023/01/13 00:16:03;;;;;;;74.45;43.47;;;4.10;82.80;;;;;;5074977;28;20377;-12
2023/01/13 00:18:29;;;;;;;68.90;42.72;;;4.10;82.80;;;;;;5075327;28;20028;-13
2023/01/13 00:21:05;;;;;;;65.43;40.50;;;4.00;82.80;;;;;;5074642;28;20138;-13
2023/01/13 00:23:33;;;;;;;46.72;29.27;;;4.00;82.90;;;;;;5075261;28;20029;-12
2023/01/13 00:26:03;;;;;;;68.63;41.83;;;4.00;83.00;;;;;;5074964;28;20064;-11
2023/01/13 00:28:28;;;;;;;44.63;30.13;;;4.00;83.10;;;;;;5074935;28;20027;-12
2023/01/13 00:30:57;;;;;;;42.88;28.00;;;4.00;83.10;;;;;;5074522;28;20020;-12
2023/01/13 00:33:24;;;;;;;46.78;29.75;;;4.00;82.90;;;;;;5075070;28;20051;-13
2023/01/13 00:36:00;;;;;;;53.53;33.17;;;4.10;82.80;;;;;;5074719;28;20024;-12
2023/01/13 00:38:27;;;;;;;52.72;31.95;;;4.10;82.80;;;;;;5074985;28;20016;-13
2023/01/13 00:41:04;;;;;;;48.20;30.00;;;4.10;82.90;;;;;;5074599;28;20050;-13
2023/01/13 00:43:31;;;;;;;38.33;26.75;;;4.10;82.90;;;;;;5074875;28;20083;-11
2023/01/13 00:45:57;;;;;;;40.28;26.92;;;4.10;83.00;;;;;;5074875;28;20033;-12
2023/01/13 00:48:24;;;;;;;37.22;25.85;;;4.10;82.80;;;;;;5074426;28;20032;-12
2023/01/13 00:50:56;;;;;;;44.08;28.88;;;4.10;82.80;;;;;;5074780;28;20020;-13
2023/01/13 00:53:22;;;;;;;60.38;38.58;;;4.10;82.90;;;;;;5074730;28;20013;-13
2023/01/13 00:55:48;;;;;;;67.78;40.78;;;4.10;83.00;;;;;;5074357;28;20492;-12
2023/01/13 00:58:14;;;;;;;55.85;35.05;;;4.10;82.90;;;;;;5074693;28;20036;-12
2023/01/13 01:00:40;;;;;;;48.17;32.03;;;4.10;83.00;;;;;;5074149;28;20087;-13
2023/01/13 01:03:11;;;;;;;58.40;35.75;;;4.10;83.00;;;;;;5074035;28;20506;-13
2023/01/13 01:05:38;;;;;;;62.97;38.42;;;4.10;83.10;;;;;;5074093;28;20028;-12
2023/01/13 01:08:04;;;;;;;57.22;36.20;;;4.00;83.00;;;;;;5074420;28;20380;-13
2023/01/13 01:10:30;;;;;;;67.55;40.03;;;4.00;83.00;;;;;;5074111;28;20028;-12
2023/01/13 01:12:56;;;;;;;59.00;38.13;;;4.00;83.00;;;;;;5073970;28;20013;-12
2023/01/13 01:15:22;;;;;;;66.80;40.25;;;4.00;82.90;;;;;;5074279;28;20167;-12
2023/01/13 01:17:48;;;;;;;68.03;41.60;;;3.90;82.90;;;;;;5074422;28;20058;-12
2023/01/13 01:20:14;;;;;;;66.18;41.35;;;3.90;83.10;;;;;;5073690;28;20048;-13
2023/01/13 01:22:40;;;;;;;66.03;40.17;;;3.90;83.10;;;;;;5074300;28;20025;-11
2023/01/13 01:25:07;;;;;;;54.40;33.00;;;3.90;83.20;;;;;;5073287;28;20024;-13
2023/01/13 01:27:33;;;;;;;56.67;36.15;;;3.90;83.20;;;;;;5073875;28;20032;-12
2023/01/13 01:29:59;;;;;;;42.33;28.08;;;3.90;83.30;;;;;;5073859;28;20111;-12
2023/01/13 01:32:25;;;;;;;57.03;33.85;;;3.90;83.20;;;;;;5072349;28;20464;-12
2023/01/13 01:34:51;;;;;;;57.38;36.63;;;4.00;83.20;;;;;;5073654;28;20024;-13
2023/01/13 01:37:16;;;;;;;65.20;38.45;;;4.10;83.10;;;;;;5074015;28;20384;-12
2023/01/13 01:39:42;;;;;;;61.65;37.60;;;4.20;82.90;;;;;;5073572;28;20029;-12
2023/01/13 01:45:29;;;;;;;62.05;37.90;;;4.10;82.90;;;;;;5073777;28;20059;-12
2023/01/13 01:48:04;;;;;;;58.03;33.60;;;4.10;82.90;;;;;;5072279;28;20037;-13
2023/01/13 01:50:31;;;;;;;51.30;32.22;;;4.00;82.90;;;;;;5073044;28;20021;-12
2023/01/13 01:53:05;;;;;;;62.42;37.92;;;4.00;82.90;;;;;;5073155;28;20023;-13
2023/01/13 01:55:35;;;;;;;51.55;31.33;;;4.00;83.00;;;;;;5073282;28;20036;-12
2023/01/13 01:58:35;;;;;;;57.80;34.78;;;3.90;83.10;;;;;;5073391;28;20028;-13
2023/01/13 02:01:01;;;;;;;48.30;31.77;;;3.90;83.10;;;;;;5050915;28;20063;-13
2023/01/13 02:03:28;;;;;;;46.58;30.20;;;4.00;83.10;;;;;;5050972;28;20033;-12
2023/01/13 02:05:54;;;;;;;50.60;32.53;;;4.00;83.00;;;;;;5051038;28;20033;-13
2023/01/13 02:08:21;;;;;;;55.13;33.08;;;4.00;83.00;;;;;;5050775;28;20389;-12
2023/01/13 02:10:52;;;;;;;58.00;36.22;;;4.00;83.10;;;;;;5050600;28;20037;-12
2023/01/13 02:13:21;;;;;;;48.97;31.30;;;3.90;83.00;;;;;;5051087;28;20107;-13
2023/01/13 02:16:07;;;;;;;55.65;36.25;;;3.90;83.00;;;;;;5051254;28;20481;-12
2023/01/13 02:18:51;;;;;;;60.30;37.45;;;3.90;83.00;;;;;;5050688;28;20094;-12
2023/01/13 02:21:28;;;;;;;54.00;32.45;;;3.80;83.10;;;;;;5050415;28;20127;-12
2023/01/13 02:27:13;;;;;;;56.63;33.85;;;3.70;83.30;;;;;;5050974;28;20120;-12
2023/01/13 02:32:55;;;;;;;38.63;25.02;;;3.60;83.40;;;;;;5050683;28;20079;-13
2023/01/13 02:35:35;;;;;;;38.22;25.25;;;3.60;83.40;;;;;;5050619;28;20033;-13
2023/01/13 02:38:03;;;;;;;56.63;34.80;;;3.60;83.50;;;;;;5036444;28;20507;-13
2023/01/13 02:40:54;;;;;;;44.50;28.40;;;3.60;83.60;;;;;;5032916;28;20028;-13
2023/01/13 02:46:28;;;;;;;44.03;28.50;;;3.60;83.50;;;;;;5033068;28;20060;-13
2023/01/13 02:48:58;;;;;;;47.80;29.88;;;3.60;83.50;;;;;;5032371;28;20036;-13
2023/01/13 02:51:27;;;;;;;56.15;32.53;;;3.50;83.50;;;;;;5032764;28;20311;-13
2023/01/13 02:54:22;;;;;;;47.03;30.55;;;3.50;83.60;;;;;;5033171;28;20036;-12
2023/01/13 02:56:51;;;;;;;47.22;28.83;;;3.50;83.60;;;;;;5032244;28;20026;-13
2023/01/13 02:59:19;;;;;;;41.97;28.40;;;3.50;83.60;;;;;;5032535;28;20033;-13
2023/01/13 03:01:48;;;;;;;45.95;29.40;;;3.50;83.70;;;;;;5032287;28;20041;-13
2023/01/13 03:05:00;;;;;;;50.40;31.25;;;3.50;83.70;;;;;;5032531;28;20025;-13
2023/01/13 03:07:38;;;;;;;35.45;24.10;;;3.50;83.70;;;;;;5032928;28;20025;-14
2023/01/13 03:10:48;;;;;;;51.92;32.10;;;3.50;83.70;;;;;;5032351;28;20041;-13
2023/01/13 03:13:40;;;;;;;52.42;32.13;;;3.50;83.60;;;;;;5050199;28;20408;-13
2023/01/13 03:16:18;;;;;;;38.72;26.20;;;3.50;83.60;;;;;;5050295;28;20095;-12
2023/01/13 03:19:07;;;;;;;50.83;31.83;;;3.40;83.70;;;;;;5050269;28;20577;-13
2023/01/13 03:21:39;;;;;;;53.83;33.58;;;3.40;83.60;;;;;;5050026;28;20564;-12
2023/01/13 03:24:08;;;;;;;43.80;26.45;;;3.30;83.60;;;;;;5050259;28;20037;-13
2023/01/13 03:27:01;;;;;;;41.38;25.50;;;3.30;83.60;;;;;;5050238;28;20029;-14
2023/01/13 03:29:30;;;;;;;40.63;25.50;;;3.30;83.70;;;;;;5050085;28;20585;-13
2023/01/13 03:32:05;;;;;;;42.17;26.75;;;3.30;83.80;;;;;;5050199;28;20032;-13
2023/01/13 03:34:43;;;;;;;41.17;25.50;;;3.30;83.80;;;;;;5049855;28;20025;-11
2023/01/13 03:37:11;;;;;;;45.15;29.92;;;3.30;83.90;;;;;;5049742;28;20552;-12
2023/01/13 03:39:42;;;;;;;48.97;29.58;;;3.30;83.90;;;;;;5050041;28;20029;-12
2023/01/13 03:42:13;;;;;;;46.97;28.05;;;3.30;83.80;;;;;;5050081;28;20037;-12
2023/01/13 03:44:57;;;;;;;34.35;23.33;;;3.30;83.70;;;;;;5049851;28;20029;-13
2023/01/13 03:47:34;;;;;;;;;;;3.20;83.80;;;;;;5050127;28;20033;-13
2023/01/13 03:50:02;;;;;;;41.75;25.90;;;3.20;83.80;;;;;;5056160;28;19940;-12
2023/01/13 03:52:44;;;;;;;43.42;25.88;;;3.20;83.90;;;;;;5055634;28;20481;-13
2023/01/13 03:55:13;;;;;;;45.90;27.02;;;3.10;83.90;;;;;;5055644;28;20029;-12
2023/01/13 03:57:52;;;;;;;47.08;27.90;;;3.10;83.80;;;;;;5055902;28;20033;-13
2023/01/13 04:00:23;;;;;;;43.63;26.67;;;3.10;83.80;;;;;;5055691;28;20028;-13
2023/01/13 04:02:57;;;;;;;42.78;26.63;;;3.00;83.80;;;;;;5055310;28;20048;-13
2023/01/13 04:05:24;;;;;;;34.33;21.60;;;3.00;83.90;;;;;;5055776;28;20029;-13
2023/01/13 04:08:01;;;;;;;41.30;26.25;;;2.90;84.10;;;;;;5055778;28;20079;-12
2023/01/13 04:10:49;;;;;;;44.30;27.70;;;3.00;84.10;;;;;;5055600;28;20025;-12
2023/01/13 04:13:20;;;;;;;36.88;22.80;;;2.90;84.00;;;;;;5054968;28;20048;-12
2023/01/13 04:15:48;;;;;;;32.35;21.13;;;2.90;84.20;;;;;;5055416;28;20067;-13
2023/01/13 04:18:22;;;;;;;31.52;20.13;;;3.00;84.20;;;;;;5055369;28;20381;-12
2023/01/13 04:20:50;;;;;;;37.55;22.95;;;3.00;84.20;;;;;;5063948;28;20166;-11
2023/01/13 04:23:18;;;;;;;44.60;26.77;;;3.10;84.30;;;;;;5075215;28;20024;-13
2023/01/13 04:25:44;;;;;;;41.67;26.00;;;3.10;84.40;;;;;;5075370;28;20111;-12
2023/01/13 04:28:11;;;;;;;41.05;26.15;;;3.10;84.30;;;;;;5075263;28;20070;-13
2023/01/13 04:30:37;;;;;;;30.92;19.83;;;3.10;84.20;;;;;;5074853;28;20029;-12
2023/01/13 04:33:04;;;;;;;27.65;19.17;;;3.20;84.30;;;;;;5075010;28;20330;-12
2023/01/13 04:35:31;;;;;;;35.35;22.15;;;3.20;84.30;;;;;;5073588;28;20505;-12
2023/01/13 04:38:00;;;;;;;29.88;20.58;;;3.30;84.30;;;;;;5075726;28;20533;-13
2023/01/13 04:40:26;;;;;;;29.80;18.33;;;3.30;84.30;;;;;;5075071;28;20114;-12
2023/01/13 04:42:52;;;;;;;28.33;18.13;;;3.30;84.20;;;;;;5074332;28;20426;-12
2023/01/13 04:45:17;;;;;;;35.42;22.42;;;3.30;84.20;;;;;;5075248;28;20047;-13
2023/01/13 04:47:43;;;;;;;40.53;26.15;;;3.30;84.20;;;;;;5074629;28;20473;-12
2023/01/13 04:50:10;;;;;;;41.78;26.63;;;3.30;84.10;;;;;;5074814;28;20086;-13
2023/01/13 04:52:37;;;;;;;39.95;25.38;;;3.30;84.00;;;;;;5074462;28;20049;-12
2023/01/13 04:55:03;;;;;;;43.03;26.27;;;3.30;83.80;;;;;;5074595;28;20020;-13
2023/01/13 04:57:29;;;;;;;44.53;27.13;;;3.30;83.80;;;;;;5074722;28;20029;-13
2023/01/13 04:59:55;;;;;;;43.33;25.63;;;3.30;83.80;;;;;;5073565;28;20082;-12
2023/01/13 05:02:21;;;;;;;43.53;26.40;;;3.30;83.80;;;;;;5074096;28;20020;-13
2023/01/13 05:04:47;;;;;;;42.40;25.60;;;3.30;83.80;;;;;;5074447;28;20488;-12
2023/01/13 05:07:15;;;;;;;41.80;25.70;;;3.30;83.90;;;;;;5074259;28;20112;-13
2023/01/13 05:09:41;;;;;;;39.90;25.52;;;3.30;84.00;;;;;;5074243;28;20500;-13
2023/01/13 05:17:37;;;;;;;40.72;25.38;;;3.30;84.20;;;;;;5074745;28;20036;-14
2023/01/13 05:20:04;;;;;;;32.92;21.90;;;3.40;84.00;;;;;;5073724;28;20127;-12
2023/01/13 05:25:26;;;;;;;;;;;3.30;84.10;;;;;;5074366;28;20545;-12
2023/01/13 05:27:57;;;;;;;39.00;23.65;;;3.30;84.10;;;;;;5073876;28;20425;-12
2023/01/13 05:30:26;;;;;;;29.58;18.42;;;3.30;84.20;;;;;;5072730;28;20032;-13
2023/01/13 05:32:52;;;;;;;30.92;16.95;;;3.30;84.20;;;;;;5074057;28;20069;-11
2023/01/13 05:35:18;;;;;;;36.13;19.98;;;3.30;84.10;;;;;;5074021;28;20032;-14
2023/01/13 05:37:44;;;;;;;31.00;19.17;;;3.40;83.90;;;;;;5073931;28;20025;-12
2023/01/13 05:43:20;;;;;;;26.20;16.75;;;3.40;84.00;;;;;;5073560;28;20039;-13
2023/01/13 05:46:00;;;;;;;27.55;18.08;;;3.50;83.90;;;;;;5073725;28;20050;-13
2023/01/13 05:48:32;;;;;;;33.15;20.13;;;3.50;83.90;;;;;;5073405;28;20024;-13
2023/01/13 05:51:00;;;;;;;34.97;20.38;;;3.50;84.00;;;;;;5073516;28;20031;-13
2023/01/13 05:53:26;;;;;;;37.78;22.30;;;3.50;83.90;;;;;;5071950;28;20044;-12
2023/01/13 05:55:52;;;;;;;40.03;24.73;;;3.50;83.90;;;;;;5073635;28;20023;-13
2023/01/13 05:58:19;;;;;;;40.10;25.17;;;3.50;83.80;;;;;;5073514;28;20070;-14
2023/01/13 06:00:45;;;;;;;34.88;21.65;;;3.40;83.70;;;;;;5073100;28;20017;-12
2023/01/13 06:03:11;;;;;;;31.30;20.08;;;3.40;83.80;;;;;;5073180;28;20039;-11
2023/01/13 06:05:37;;;;;;;29.10;18.90;;;3.40;83.90;;;;;;5073290;28;20422;-13
2023/01/13 06:08:05;;;;;;;35.47;22.25;;;3.40;83.90;;;;;;5072995;28;20503;-12
2023/01/13 06:10:31;;;;;;;29.40;18.30;;;3.40;84.00;;;;;;5072974;28;20435;-13
2023/01/13 06:12:57;;;;;;;29.70;18.35;;;3.40;83.90;;;;;;5072979;28;20028;-13
2023/01/13 06:15:23;;;;;;;42.47;24.05;;;3.40;83.90;;;;;;5072821;28;20188;-12
2023/01/13 06:17:49;;;;;;;45.45;26.52;;;3.40;83.90;;;;;;5073211;28;20173;-12
2023/01/13 06:20:15;;;;;;;41.90;24.73;;;3.40;83.90;;;;;;5072831;28;20442;-13
2023/01/13 06:22:44;;;;;;;35.03;20.92;;;3.50;84.00;;;;;;5072688;28;20036;-12
2023/01/13 06:25:22;;;;;;;26.92;17.38;;;3.40;83.90;;;;;;5072496;28;20036;-12
2023/01/13 06:27:49;;;;;;;44.90;26.83;;;3.40;83.90;;;;;;5073060;28;20028;-13
2023/01/13 06:30:16;;;;;;;37.80;23.10;;;3.40;83.90;;;;;;5072890;28;20036;-13
2023/01/13 06:32:46;;;;;;;46.70;27.20;;;3.50;84.00;;;;;;5071404;28;20032;-13
2023/01/13 06:35:17;;;;;;;45.90;27.13;;;3.50;84.00;;;;;;5073361;28;20460;-13
2023/01/13 06:37:46;;;;;;;41.22;23.35;;;3.50;84.00;;;;;;5072859;28;20067;-12
2023/01/13 06:40:13;;;;;;;47.17;25.50;;;3.50;84.00;;;;;;5072911;28;20419;-13
2023/01/13 06:45:25;;;;;;;33.83;20.05;;;3.50;83.90;;;;;;5072561;28;20047;-13
2023/01/13 06:47:53;;;;;;;49.03;27.85;;;3.50;83.90;;;;;;5072448;28;20032;-14
2023/01/13 06:50:19;;;;;;;41.38;25.17;;;3.50;83.90;;;;;;5072422;28;20055;-14
2023/01/13 06:52:45;;;;;;;45.47;26.17;;;3.50;84.00;;;;;;5072474;28;20043;-13
2023/01/13 06:55:11;;;;;;;39.85;24.75;;;3.50;83.90;;;;;;5072648;28;20021;-13
2023/01/13 06:57:47;;;;;;;47.50;28.65;;;3.50;84.00;;;;;;5072511;28;20016;-13
2023/01/13 07:00:14;;;;;;;42.47;25.52;;;3.50;84.00;;;;;;5072788;28;20032;-13
2023/01/13 07:02:40;;;;;;;47.90;27.70;;;3.50;84.00;;;;;;5072046;28;20116;-14
2023/01/13 07:05:06;;;;;;;48.28;29.38;;;3.50;84.00;;;;;;5072239;28;20139;-13
2023/01/13 07:07:32;;;;;;;34.97;22.88;;;3.50;84.00;;;;;;5072910;28;20052;-13
2023/01/13 07:09:59;;;;;;;47.20;29.55;;;3.50;84.00;;;;;;5072220;28;20107;-13
2023/01/13 07:12:25;;;;;;;48.13;28.88;;;3.50;84.00;;;;;;5072186;28;20083;-13
2023/01/13 07:17:35;;;;;;;50.33;29.27;;;3.60;84.00;;;;;;5072184;28;20161;-13
2023/01/13 07:20:01;;;;;;;50.50;29.98;;;3.60;84.00;;;;;;5072255;28;20111;-13
2023/01/13 07:22:26;;;;;;;44.97;27.23;;;3.60;84.00;;;;;;5072630;28;20025;-13
2023/01/13 07:24:52;;;;;;;51.22;30.05;;;3.60;84.00;;;;;;5075790;28;20120;-13
2023/01/13 07:27:18;;;;;;;41.47;24.85;;;3.60;84.00;;;;;;5076453;28;20065;-13
2023/01/13 07:29:43;;;;;;;51.00;30.75;;;3.70;84.00;;;;;;5076011;28;20384;-13
2023/01/13 07:32:09;;;;;;;52.00;30.02;;;3.70;84.00;;;;;;5076240;28;20063;-13
2023/01/13 07:34:35;;;;;;;54.20;31.30;;;3.70;83.90;;;;;;5075979;28;20401;-14
2023/01/13 07:37:01;;;;;;;73.50;40.70;;;3.80;83.80;;;;;;5075717;28;20024;-13
2023/01/13 07:39:27;;;;;;;48.88;31.27;;;3.70;83.80;;;;;;5075979;28;20024;-14
2023/01/13 07:44:36;;;;;;;50.63;30.00;;;3.80;83.70;;;;;;5075792;28;20063;-13
2023/01/13 07:47:04;;;;;;;51.75;30.85;;;3.80;83.80;;;;;;5075770;28;20468;-13
2023/01/13 07:49:30;;;;;;;51.28;30.80;;;3.90;83.90;;;;;;5075620;28;20036;-13
2023/01/13 07:51:56;;;;;;;51.28;31.40;;;3.90;83.90;;;;;;5075936;28;20028;-12
2023/01/13 07:54:21;;;;;;;45.00;28.75;;;3.90;83.70;;;;;;5075813;28;20031;-12
2023/01/13 07:56:47;;;;;;;42.35;24.83;;;3.90;83.70;;;;;;5075640;28;20021;-13
2023/01/13 07:59:13;;;;;;;50.47;30.40;;;4.00;83.90;;;;;;5075927;28;20036;-12
2023/01/13 08:01:38;;;;;;;54.20;32.75;;;4.10;83.90;;;;;;5075939;28;20384;-13
2023/01/13 08:04:04;;;;;;;49.75;29.58;;;4.10;83.90;;;;;;5075216;28;20503;-12
2023/01/13 08:06:30;;;;;;;55.67;32.25;;;4.20;83.80;;;;;;5075303;28;20032;-13
2023/01/13 08:08:56;;;;;;;51.30;31.15;;;4.20;83.70;;;;;;5075048;28;20074;-14
2023/01/13 08:11:21;;;;;;;58.58;32.47;;;4.30;83.80;;;;;;5075494;28;20029;-13
2023/01/13 08:13:47;;;;;;;57.95;34.20;;;4.40;83.80;;;;;;5075305;28;20021;-12
2023/01/13 08:16:14;;;;;;;37.92;25.85;;;4.40;83.80;;;;;;5075508;28;20024;-12
2023/01/13 08:18:41;;;;;;;36.53;23.88;;;4.40;83.80;;;;;;5075611;28;20063;-13
2023/01/13 08:21:12;;;;;;;53.58;32.67;;;4.50;83.80;;;;;;5074655;28;20053;-12
2023/01/13 08:23:39;;;;;;;46.80;28.48;;;4.60;83.80;;;;;;5075833;28;20158;-13
2023/01/13 08:26:07;;;;;;;51.47;29.10;;;4.60;83.50;;;;;;5075036;28;20507;-12
2023/01/13 08:28:33;;;;;;;44.30;27.40;;;4.70;83.50;;;;;;5074959;28;20025;-13
2023/01/13 08:31:05;;;;;;;54.13;32.10;;;4.80;83.30;;;;;;5074561;28;20024;-13
2023/01/13 08:33:31;;;;;;;61.30;34.10;;;4.80;83.30;;;;;;5073660;28;20052;-13
2023/01/13 08:35:57;;;;;;;50.38;29.38;;;4.90;83.40;;;;;;5073440;28;20063;-13
2023/01/13 08:38:24;;;;;;;64.88;36.40;;;4.90;83.30;;;;;;5074786;28;20392;-12
2023/01/13 08:40:49;;;;;;;58.90;34.38;;;5.00;83.20;;;;;;5074589;28;20020;-12
2023/01/13 08:43:15;;;;;;;59.70;32.45;;;5.10;83.20;;;;;;5073384;28;20111;-13
2023/01/13 08:45:41;;;;;;;62.17;36.05;;;5.20;83.30;;;;;;5074800;28;20117;-14
2023/01/13 08:48:07;;;;;;;69.22;37.08;;;5.30;83.30;;;;;;5074554;28;20541;-13
2023/01/13 08:50:33;;;;;;;50.75;29.95;;;5.40;83.00;;;;;;5074634;28;20060;-13
2023/01/13 08:52:59;;;;;;;40.42;25.20;;;5.40;82.90;;;;;;5074343;28;20440;-13
2023/01/13 08:55:25;;;;;;;43.08;26.15;;;5.60;83.00;;;;;;5074448;28;20054;-13
2023/01/13 08:57:51;;;;;;;46.22;28.00;;;5.60;82.90;;;;;;5074679;28;20028;-12
2023/01/13 09:00:17;;;;;;;58.10;33.20;;;5.80;82.80;;;;;;5074372;28;20040;-13
2023/01/13 09:02:43;;;;;;;50.42;30.75;;;5.90;82.80;;;;;;5074235;28;20029;-13
2023/01/13 09:05:09;;;;;;;45.05;27.27;;;6.00;82.60;;;;;;5074157;28;20016;-13
2023/01/13 09:07:37;;;;;;;55.78;31.42;;;6.10;82.50;;;;;;5074222;28;20485;-13
2023/01/13 09:10:05;;;;;;;44.15;25.77;;;6.20;82.60;;;;;;5074491;28;20099;-14
2023/01/13 09:15:17;;;;;;;;;;;6.40;82.40;;;;;;5074815;28;20109;-14
2023/01/13 09:17:44;;;;;;;59.47;35.00;;;6.50;82.40;;;;;;5074070;28;19904;-13
2023/01/13 09:20:11;;;;;;;48.28;28.73;;;6.60;82.00;;;;;;5073935;28;20057;-14
2023/01/13 09:22:39;;;;;;;52.15;31.55;;;6.70;81.70;;;;;;5074203;28;20024;-13
2023/01/13 09:25:05;;;;;;;63.53;34.55;;;6.70;81.70;;;;;;5073659;28;20024;-13
2023/01/13 09:27:31;;;;;;;60.25;34.75;;;6.80;81.70;;;;;;5073653;28;20024;-12
2023/01/13 09:29:57;;;;;;;58.20;32.75;;;6.80;81.40;;;;;;5073965;28;20020;-12
2023/01/13 09:32:23;;;;;;;54.63;31.20;;;6.80;81.30;;;;;;5073488;28;20025;-13
2023/01/13 09:35:00;;;;;;;49.83;31.40;;;6.80;81.10;;;;;;5073692;28;20027;-13
2023/01/13 09:37:33;;;;;;;36.17;25.02;;;6.80;81.10;;;;;;5073842;28;20032;-12
2023/01/13 09:39:59;;;;;;;42.85;26.25;;;6.80;81.30;;;;;;5073933;28;20043;-13
2023/01/13 09:45:40;;;;;;;46.42;28.13;;;6.90;81.70;;;;;;5073267;28;20089;-13
2023/01/13 09:48:14;;;;;;;39.45;24.73;;;7.00;81.60;;;;;;5073475;28;20100;-13
2023/01/13 09:51:01;;;;;;;43.33;25.67;;;7.10;81.40;;;;;;5073255;28;20036;-13
2023/01/13 09:53:38;;;;;;;40.15;26.55;;;7.20;81.40;;;;;;5073744;28;20170;-13
2023/01/13 09:56:06;;;;;;;46.63;28.40;;;7.30;81.00;;;;;;5073428;28;20033;-12
2023/01/13 09:58:33;;;;;;;40.90;26.20;;;7.30;80.90;;;;;;5073226;28;20504;-13
2023/01/13 10:01:19;;;;;;;41.20;26.63;;;7.30;80.70;;;;;;5072829;28;20036;-12
2023/01/13 10:03:47;;;;;;;41.53;25.45;;;7.30;80.40;;;;;;5073010;28;20042;-13
2023/01/13 10:06:13;;;;;;;40.75;23.65;;;7.40;80.60;;;;;;5073008;28;20037;-13
2023/01/13 10:08:43;;;;;;;42.35;25.52;;;7.40;80.60;;;;;;5073509;28;20097;-13
2023/01/13 10:14:09;;;;;;;42.83;25.85;;;7.60;80.50;;;;;;5073617;28;20078;-13
2023/01/13 10:16:46;;;;;;;43.53;26.35;;;7.60;80.50;;;;;;5073160;28;20021;-12
2023/01/13 10:19:38;;;;;;;39.78;23.95;;;7.70;80.40;;;;;;5073157;28;20041;-12
2023/01/13 10:22:37;;;;;;;39.97;23.85;;;7.70;80.30;;;;;;5066031;28;20408;-13
2023/01/13 10:25:20;;;;;;;39.78;23.10;;;7.80;80.30;;;;;;5072839;28;20080;-12
2023/01/13 10:27:51;;;;;;;37.33;23.40;;;7.90;80.10;;;;;;5073071;28;20469;-12
2023/01/13 10:30:20;;;;;;;37.88;23.33;;;7.90;80.00;;;;;;5072804;28;20387;-12
2023/01/13 10:32:54;;;;;;;40.60;24.67;;;7.90;80.10;;;;;;5073291;28;20056;-13
2023/01/13 10:35:51;;;;;;;31.15;20.50;;;8.00;80.00;;;;;;5073166;28;20032;-13
2023/01/13 10:38:20;;;;;;;35.58;21.52;;;8.00;80.00;;;;;;5072794;28;20029;-13
2023/01/13 10:40:49;;;;;;;39.05;24.02;;;8.10;80.00;;;;;;5072741;28;20099;-15
2023/01/13 10:43:15;;;;;;;34.55;21.70;;;8.20;79.70;;;;;;5072437;28;20029;-12
2023/01/13 10:45:51;;;;;;;30.55;20.25;;;8.20;79.80;;;;;;5072712;28;20024;-13
2023/01/13 10:48:17;;;;;;;31.85;21.70;;;8.20;79.80;;;;;;5072589;28;20411;-13
2023/01/13 10:50:47;;;;;;;25.95;17.73;;;8.30;79.80;;;;;;5072738;28;20039;-13
2023/01/13 10:53:19;;;;;;;36.03;20.88;;;8.40;79.70;;;;;;5072430;28;20025;-13
2023/01/13 10:55:59;;;;;;;36.08;22.58;;;8.40;79.60;;;;;;5072499;28;20028;-13
2023/01/13 10:58:25;;;;;;;34.90;21.90;;;8.50;79.40;;;;;;5071999;28;20032;-13
2023/01/13 11:01:03;;;;;;;35.83;22.27;;;8.50;79.10;;;;;;5070961;28;20384;-13
2023/01/13 11:03:40;;;;;;;36.22;23.08;;;8.40;78.90;;;;;;5072528;28;20519;-13
2023/01/13 11:06:07;;;;;;;40.70;23.20;;;8.40;78.90;;;;;;5072861;28;20377;-13
2023/01/13 11:08:45;;;;;;;38.83;25.50;;;8.30;78.40;;;;;;5072345;28;20020;-13
2023/01/13 11:11:46;;;;;;;46.50;27.42;;;8.30;78.90;;;;;;5072451;28;20055;-14
2023/01/13 11:14:43;;;;;;;41.13;24.73;;;8.30;79.00;;;;;;5072639;28;20030;-13
2023/01/13 11:17:39;;;;;;;39.25;25.17;;;8.30;79.00;;;;;;5071958;28;20520;-13
2023/01/13 11:20:10;;;;;;;37.97;23.15;;;8.30;79.00;;;;;;5071998;28;20057;-12
2023/01/13 11:22:55;;;;;;;35.70;22.38;;;8.30;79.10;;;;;;5072536;28;20052;-13
2023/01/13 11:25:41;;;;;;;39.28;22.92;;;8.30;79.10;;;;;;5072571;28;20033;-12
2023/01/13 11:28:35;;;;;;;32.45;20.48;;;8.30;78.90;;;;;;5072526;28;20481;-12
2023/01/13 11:31:26;;;;;;;40.92;24.42;;;8.40;78.90;;;;;;5072178;28;20028;-12
2023/01/13 11:34:03;;;;;;;37.50;23.58;;;8.40;78.90;;;;;;5071714;28;20029;-12
2023/01/13 11:36:52;;;;;;;36.80;22.10;;;8.40;79.00;;;;;;5072444;28;20108;-12
2023/01/13 11:39:52;;;;;;;35.90;22.83;;;8.50;78.80;;;;;;5072052;28;20481;-13
2023/01/13 11:42:42;;;;;;;37.63;23.38;;;8.50;78.80;;;;;;5072378;28;20043;-11
2023/01/13 11:45:16;;;;;;;38.70;25.40;;;8.60;78.60;;;;;;5071863;28;20025;-12
2023/01/13 11:47:45;;;;;;;40.25;26.02;;;8.70;78.20;;;;;;5071869;28;20572;-12
2023/01/13 11:50:36;;;;;;;37.33;26.05;;;8.70;77.90;;;;;;5072059;28;20086;-12
2023/01/13 11:53:36;;;;;;;43.67;27.20;;;8.70;78.00;;;;;;5072020;28;20024;-13
2023/01/13 11:56:18;;;;;;;40.80;24.30;;;8.70;78.10;;;;;;5072259;28;20380;-12
2023/01/13 11:59:18;;;;;;;35.38;23.65;;;8.80;77.90;;;;;;5072219;28;20032;-12
2023/01/13 12:02:12;;;;;;;44.30;27.77;;;8.80;77.90;;;;;;5072113;28;20033;-12
2023/01/13 12:04:42;;;;;;;44.90;26.65;;;8.90;78.00;;;;;;5071700;28;20040;-12
2023/01/13 12:07:34;;;;;;;40.08;24.65;;;8.90;78.00;;;;;;5071905;28;20017;-13
2023/01/13 12:10:05;;;;;;;38.83;25.83;;;8.90;78.00;;;;;;5062601;28;20024;-12
2023/01/13 12:12:46;;;;;;;41.88;26.38;;;9.00;77.90;;;;;;5075536;28;20028;-12
2023/01/13 12:15:27;;;;;;;44.72;27.83;;;9.10;77.70;;;;;;5075849;28;20055;-11
2023/01/13 12:18:22;;;;;;;38.30;27.65;;;9.10;77.50;;;;;;5075132;28;20028;-11
2023/01/13 12:21:20;;;;;;;37.28;23.67;;;9.10;77.40;;;;;;5075056;28;20049;-11
2023/01/13 12:24:17;;;;;;;42.97;27.25;;;9.10;77.50;;;;;;5075384;28;20040;-11
2023/01/13 12:26:56;;;;;;;42.20;25.90;;;9.20;77.40;;;;;;5073880;28;20031;-12
2023/01/13 12:29:32;;;;;;;40.13;26.05;;;9.30;77.60;;;;;;5075089;28;20029;-12
2023/01/13 12:32:01;;;;;;;42.65;27.60;;;9.40;77.60;;;;;;5074816;28;20027;-12
2023/01/13 12:34:47;;;;;;;47.00;27.90;;;9.40;77.60;;;;;;5074899;28;20054;-13
2023/01/13 12:37:25;;;;;;;43.85;26.80;;;9.50;77.30;;;;;;5074733;28;20036;-12
2023/01/13 12:40:29;;;;;;;37.67;25.40;;;9.50;77.00;;;;;;5075274;28;20025;-12
2023/01/13 12:45:51;;;;;;;42.88;26.80;;;9.50;76.80;;;;;;5075085;28;20262;-13
2023/01/13 12:48:55;;;;;;;43.53;25.83;;;9.50;76.80;;;;;;5075448;28;20025;-13
2023/01/13 12:51:28;;;;;;;40.83;25.35;;;9.50;76.70;;;;;;5075031;28;20098;-12
2023/01/13 12:53:55;;;;;;;37.35;22.90;;;9.60;76.70;;;;;;5074603;28;20036;-13
2023/01/13 12:56:34;;;;;;;41.28;27.10;;;9.60;76.00;;;;;;5074777;28;20028;-13
2023/01/13 12:59:18;;;;;;;38.65;23.98;;;9.60;76.30;;;;;;5074395;28;20032;-12
2023/01/13 13:02:11;;;;;;;37.40;25.08;;;9.60;76.50;;;;;;5074582;28;20037;-12
2023/01/13 13:04:58;;;;;;;39.88;27.38;;;9.70;76.60;;;;;;5074126;28;20068;-12
2023/01/13 13:07:34;;;;;;;43.45;27.73;;;9.80;76.60;;;;;;5074295;28;20111;-12
2023/01/13 13:10:03;;;;;;;38.63;25.52;;;9.90;76.40;;;;;;5075077;28;20043;-12
2023/01/13 13:15:32;;;;;;;39.75;23.35;;;10.00;76.00;;;;;;5074478;28;20036;-12
2023/01/13 13:17:58;;;;;;;36.35;22.88;;;10.00;75.50;;;;;;5075077;28;20031;-12
2023/01/13 13:21:01;;;;;;;32.67;21.98;;;10.00;75.50;;;;;;5073237;28;20409;-12
2023/01/13 13:23:36;;;;;;;34.90;23.02;;;10.00;75.60;;;;;;5074142;28;20035;-11
2023/01/13 13:26:10;;;;;;;42.28;27.23;;;10.00;75.70;;;;;;5074663;28;20025;-13
2023/01/13 13:28:43;;;;;;;40.55;27.13;;;10.10;75.60;;;;;;5074190;28;20082;-12
2023/01/13 13:31:20;;;;;;;37.20;24.73;;;10.10;75.40;;;;;;5073931;28;20021;-12
2023/01/13 13:33:54;;;;;;;40.45;25.20;;;10.10;75.50;;;;;;5073794;28;20063;-12
2023/01/13 13:36:23;;;;;;;39.53;26.98;;;10.20;75.50;;;;;;5073960;28;20048;-12
2023/01/13 13:47:41;;;;;;;43.67;30.08;;;10.60;74.70;;;;;;5074084;28;20396;-12
2023/01/13 13:50:19;;;;;;;44.03;29.33;;;10.60;74.50;;;;;;5073688;28;20448;-12
2023/01/13 13:53:06;;;;;;;37.97;26.67;;;10.50;74.50;;;;;;5073752;28;20154;-13
2023/01/13 13:55:32;;;;;;;44.00;29.17;;;10.50;74.60;;;;;;5073595;28;20077;-11
2023/01/13 13:58:00;;;;;;;45.10;29.25;;;10.40;74.70;;;;;;5073526;28;20067;-11
2023/01/13 14:00:30;;;;;;;49.08;31.65;;;10.30;74.90;;;;;;5073213;28;20123;-12